sensor_id;sensor_type;location;lat;lon;timestamp;temperature;humidity
4811;DHT22;2419;51.276;6.472;2023-04-03T00:01:13;1.60;99.90
4811;DHT22;2419;51.276;6.472;2023-04-03T00:03:41;1.50;99.90
4811;DHT22;2419;51.276;6.472;2023-04-03T00:06:10;1.50;99.90
4811;DHT22;2419;51.276;6.472;2023-04-03T00:08:39;1.50;99.90
4811;DHT22;2419;51.276;6.472;2023-04-03T00:11:08;1.50;99.90
4811;DHT22;2419;51.276;6.472;2023-04-03T00:13:36;1.50;99.90
4811;DHT22;2419;51.276;6.472;2023-04-03T00:16:06;1.50;99.90
4811;DHT22;2419;51.276;6.472;2023-04-03T00:18:35;1.50;99.90
4811;DHT22;2419;51.276;6.472;2023-04-03T00:21:04;1.40;99.90
4811;DHT22;2419;51.276;6.472;2023-04-03T00:23:33;1.30;99.90
4811;DHT22;2419;51.276;6.472;2023-04-03T00:26:02;1.30;99.90
4811;DHT22;2419;51.276;6.472;2023-04-03T00:28:30;1.30;99.90
4811;DHT22;2419;51.276;6.472;2023-04-03T00:30:59;1.20;99.90
4811;DHT22;2419;51.276;6.472;2023-04-03T00:33:28;1.30;99.90
4811;DHT22;2419;51.276;6.472;2023-04-03T00:35:56;1.20;99.90
4811;DHT22;2419;51.276;6.472;2023-04-03T00:38:24;1.30;99.90
4811;DHT22;2419;51.276;6.472;2023-04-03T00:40:52;1.20;99.90
4811;DHT22;2419;51.276;6.472;2023-04-03T00:43:23;1.20;99.90
4811;DHT22;2419;51.276;6.472;2023-04-03T00:45:51;1.30;99.90
4811;DHT22;2419;51.276;6.472;2023-04-03T00:48:22;1.30;99.90
4811;DHT22;2419;51.276;6.472;2023-04-03T00:50:52;1.30;99.90
4811;DHT22;2419;51.276;6.472;2023-04-03T00:53:23;1.20;99.90
4811;DHT22;2419;51.276;6.472;2023-04-03T00:55:54;1.20;99.90
4811;DHT22;2419;51.276;6.472;2023-04-03T00:58:30;1.10;99.90
4811;DHT22;2419;51.276;6.472;2023-04-03T01:01:05;1.10;99.90
4811;DHT22;2419;51.276;6.472;2023-04-03T01:03:34;1.00;99.90
4811;DHT22;2419;51.276;6.472;2023-04-03T01:06:06;1.00;99.90
4811;DHT22;2419;51.276;6.472;2023-04-03T01:08:35;1.10;99.90
4811;DHT22;2419;51.276;6.472;2023-04-03T01:11:03;1.00;99.90
4811;DHT22;2419;51.276;6.472;2023-04-03T01:13:32;1.00;99.90
4811;DHT22;2419;51.276;6.472;2023-04-03T01:16:02;0.90;99.90
4811;DHT22;2419;51.276;6.472;2023-04-03T01:18:32;0.80;99.90
4811;DHT22;2419;51.276;6.472;2023-04-03T01:21:30;0.80;99.90
4811;DHT22;2419;51.276;6.472;2023-04-03T01:24:21;0.80;99.90
4811;DHT22;2419;51.276;6.472;2023-04-03T01:26:49;0.80;99.90
4811;DHT22;2419;51.276;6.472;2023-04-03T01:29:18;0.80;99.90
4811;DHT22;2419;51.276;6.472;2023-04-03T01:31:51;0.70;99.90
4811;DHT22;2419;51.276;6.472;2023-04-03T01:34:20;0.70;99.90
4811;DHT22;2419;51.276;6.472;2023-04-03T01:36:49;0.70;99.90
4811;DHT22;2419;51.276;6.472;2023-04-03T01:39:18;0.70;99.90
4811;DHT22;2419;51.276;6.472;2023-04-03T01:41:46;0.80;99.90
4811;DHT22;2419;51.276;6.472;2023-04-03T01:44:37;0.90;99.90
4811;DHT22;2419;51.276;6.472;2023-04-03T01:47:07;0.80;99.90
4811;DHT22;2419;51.276;6.472;2023-04-03T01:49:36;0.90;99.90
4811;DHT22;2419;51.276;6.472;2023-04-03T01:52:04;1.00;99.90
4811;DHT22;2419;51.276;6.472;2023-04-03T01:54:32;1.10;99.90
4811;DHT22;2419;51.276;6.472;2023-04-03T01:57:01;1.20;99.90
4811;DHT22;2419;51.276;6.472;2023-04-03T01:59:30;1.30;99.90
4811;DHT22;2419;51.276;6.472;2023-04-03T02:01:58;1.30;99.90
4811;DHT22;2419;51.276;6.472;2023-04-03T02:04:27;1.40;99.90
4811;DHT22;2419;51.276;6.472;2023-04-03T02:06:56;1.40;99.90
4811;DHT22;2419;51.276;6.472;2023-04-03T02:09:24;1.40;99.90
4811;DHT22;2419;51.276;6.472;2023-04-03T02:11:53;1.40;99.90
4811;DHT22;2419;51.276;6.472;2023-04-03T02:14:21;1.60;99.90
4811;DHT22;2419;51.276;6.472;2023-04-03T02:16:50;1.60;99.90
4811;DHT22;2419;51.276;6.472;2023-04-03T02:19:20;1.60;99.90
4811;DHT22;2419;51.276;6.472;2023-04-03T02:21:49;1.70;99.90
4811;DHT22;2419;51.276;6.472;2023-04-03T02:24:17;1.70;99.90
4811;DHT22;2419;51.276;6.472;2023-04-03T02:26:46;1.90;99.90
4811;DHT22;2419;51.276;6.472;2023-04-03T02:29:14;1.90;99.90
4811;DHT22;2419;51.276;6.472;2023-04-03T02:31:42;2.00;99.90
4811;DHT22;2419;51.276;6.472;2023-04-03T02:34:10;2.00;99.90
4811;DHT22;2419;51.276;6.472;2023-04-03T02:36:39;2.10;99.90
4811;DHT22;2419;51.276;6.472;2023-04-03T02:39:10;2.20;99.90
4811;DHT22;2419;51.276;6.472;2023-04-03T02:41:38;2.20;99.90
4811;DHT22;2419;51.276;6.472;2023-04-03T02:44:15;2.10;99.90
4811;DHT22;2419;51.276;6.472;2023-04-03T02:46:43;2.20;99.90
4811;DHT22;2419;51.276;6.472;2023-04-03T02:49:11;2.20;99.90
4811;DHT22;2419;51.276;6.472;2023-04-03T02:51:39;2.20;99.90
4811;DHT22;2419;51.276;6.472;2023-04-03T02:54:07;2.30;99.90
4811;DHT22;2419;51.276;6.472;2023-04-03T02:56:39;2.30;99.90
4811;DHT22;2419;51.276;6.472;2023-04-03T02:59:07;2.40;99.90
4811;DHT22;2419;51.276;6.472;2023-04-03T03:01:37;2.50;99.90
4811;DHT22;2419;51.276;6.472;2023-04-03T03:04:06;2.50;99.90
4811;DHT22;2419;51.276;6.472;2023-04-03T03:06:34;2.50;99.90
4811;DHT22;2419;51.276;6.472;2023-04-03T03:09:02;2.50;99.90
4811;DHT22;2419;51.276;6.472;2023-04-03T03:11:31;2.50;99.90
4811;DHT22;2419;51.276;6.472;2023-04-03T03:14:00;2.50;99.90
4811;DHT22;2419;51.276;6.472;2023-04-03T03:16:28;2.40;99.90
4811;DHT22;2419;51.276;6.472;2023-04-03T03:18:56;2.40;99.90
4811;DHT22;2419;51.276;6.472;2023-04-03T03:21:25;2.40;99.90
4811;DHT22;2419;51.276;6.472;2023-04-03T03:23:53;2.40;99.90
4811;DHT22;2419;51.276;6.472;2023-04-03T03:26:23;2.40;99.90
4811;DHT22;2419;51.276;6.472;2023-04-03T03:28:51;2.30;99.90
4811;DHT22;2419;51.276;6.472;2023-04-03T03:31:21;2.30;99.90
4811;DHT22;2419;51.276;6.472;2023-04-03T03:33:49;2.20;99.90
4811;DHT22;2419;51.276;6.472;2023-04-03T03:36:17;2.20;99.90
4811;DHT22;2419;51.276;6.472;2023-04-03T03:38:45;2.10;99.90
4811;DHT22;2419;51.276;6.472;2023-04-03T03:41:13;2.10;99.90
4811;DHT22;2419;51.276;6.472;2023-04-03T03:43:46;2.20;99.90
4811;DHT22;2419;51.276;6.472;2023-04-03T03:46:16;2.10;99.90
4811;DHT22;2419;51.276;6.472;2023-04-03T03:48:45;2.10;99.90
4811;DHT22;2419;51.276;6.472;2023-04-03T03:51:14;2.20;99.90
4811;DHT22;2419;51.276;6.472;2023-04-03T03:53:42;2.10;99.90
4811;DHT22;2419;51.276;6.472;2023-04-03T03:56:13;2.20;99.90
4811;DHT22;2419;51.276;6.472;2023-04-03T03:58:43;2.10;99.90
4811;DHT22;2419;51.276;6.472;2023-04-03T04:01:12;2.10;99.90
4811;DHT22;2419;51.276;6.472;2023-04-03T04:03:46;2.20;99.90
4811;DHT22;2419;51.276;6.472;2023-04-03T04:06:19;2.20;99.90
4811;DHT22;2419;51.276;6.472;2023-04-03T04:08:47;2.30;99.90
4811;DHT22;2419;51.276;6.472;2023-04-03T04:11:15;2.30;99.90
4811;DHT22;2419;51.276;6.472;2023-04-03T04:13:45;2.20;99.90
4811;DHT22;2419;51.276;6.472;2023-04-03T04:16:15;2.20;99.90
4811;DHT22;2419;51.276;6.472;2023-04-03T04:18:43;2.10;99.90
4811;DHT22;2419;51.276;6.472;2023-04-03T04:21:13;2.10;99.90
4811;DHT22;2419;51.276;6.472;2023-04-03T04:23:41;2.10;99.90
4811;DHT22;2419;51.276;6.472;2023-04-03T04:26:09;2.20;99.90
4811;DHT22;2419;51.276;6.472;2023-04-03T04:28:38;2.10;99.90
4811;DHT22;2419;51.276;6.472;2023-04-03T04:31:07;2.10;99.90
4811;DHT22;2419;51.276;6.472;2023-04-03T04:33:36;2.10;99.90
4811;DHT22;2419;51.276;6.472;2023-04-03T04:36:06;2.10;99.90
4811;DHT22;2419;51.276;6.472;2023-04-03T04:38:36;2.10;99.90
4811;DHT22;2419;51.276;6.472;2023-04-03T04:41:05;2.10;99.90
4811;DHT22;2419;51.276;6.472;2023-04-03T04:43:34;2.00;99.90
4811;DHT22;2419;51.276;6.472;2023-04-03T04:46:03;2.00;99.90
4811;DHT22;2419;51.276;6.472;2023-04-03T04:48:36;2.00;99.90
4811;DHT22;2419;51.276;6.472;2023-04-03T04:51:05;2.00;99.90
4811;DHT22;2419;51.276;6.472;2023-04-03T04:53:37;2.00;99.90
4811;DHT22;2419;51.276;6.472;2023-04-03T04:56:06;2.00;99.90
4811;DHT22;2419;51.276;6.472;2023-04-03T04:58:36;2.00;99.90
4811;DHT22;2419;51.276;6.472;2023-04-03T05:01:06;2.00;99.90
4811;DHT22;2419;51.276;6.472;2023-04-03T05:03:39;2.00;99.90
4811;DHT22;2419;51.276;6.472;2023-04-03T05:06:07;2.00;99.90
4811;DHT22;2419;51.276;6.472;2023-04-03T05:08:38;2.10;99.90
4811;DHT22;2419;51.276;6.472;2023-04-03T05:11:06;2.00;99.90
4811;DHT22;2419;51.276;6.472;2023-04-03T05:13:34;2.00;99.90
4811;DHT22;2419;51.276;6.472;2023-04-03T05:16:03;2.10;99.90
4811;DHT22;2419;51.276;6.472;2023-04-03T05:18:32;2.00;99.90
4811;DHT22;2419;51.276;6.472;2023-04-03T05:21:05;2.00;99.90
4811;DHT22;2419;51.276;6.472;2023-04-03T05:23:33;2.10;99.90
4811;DHT22;2419;51.276;6.472;2023-04-03T05:26:04;2.10;99.90
4811;DHT22;2419;51.276;6.472;2023-04-03T05:28:32;2.10;99.90
4811;DHT22;2419;51.276;6.472;2023-04-03T05:31:00;2.20;99.90
4811;DHT22;2419;51.276;6.472;2023-04-03T05:33:33;2.20;99.90
4811;DHT22;2419;51.276;6.472;2023-04-03T05:36:04;2.20;99.90
4811;DHT22;2419;51.276;6.472;2023-04-03T05:38:36;2.50;99.90
4811;DHT22;2419;51.276;6.472;2023-04-03T05:41:06;3.20;99.90
4811;DHT22;2419;51.276;6.472;2023-04-03T05:43:34;3.20;99.90
4811;DHT22;2419;51.276;6.472;2023-04-03T05:46:09;3.20;99.90
4811;DHT22;2419;51.276;6.472;2023-04-03T05:48:38;4.10;99.90
4811;DHT22;2419;51.276;6.472;2023-04-03T05:51:14;4.80;99.90
4811;DHT22;2419;51.276;6.472;2023-04-03T05:53:43;5.50;99.90
4811;DHT22;2419;51.276;6.472;2023-04-03T05:56:14;5.80;99.90
4811;DHT22;2419;51.276;6.472;2023-04-03T05:58:42;6.40;99.90
4811;DHT22;2419;51.276;6.472;2023-04-03T06:01:10;6.90;99.90
4811;DHT22;2419;51.276;6.472;2023-04-03T06:03:39;6.80;99.90
4811;DHT22;2419;51.276;6.472;2023-04-03T06:06:12;7.00;99.90
4811;DHT22;2419;51.276;6.472;2023-04-03T06:08:43;7.20;99.90
4811;DHT22;2419;51.276;6.472;2023-04-03T06:11:11;7.50;99.90
4811;DHT22;2419;51.276;6.472;2023-04-03T06:13:40;7.90;99.90
4811;DHT22;2419;51.276;6.472;2023-04-03T06:16:09;7.90;99.80
4811;DHT22;2419;51.276;6.472;2023-04-03T06:18:41;8.20;99.50
4811;DHT22;2419;51.276;6.472;2023-04-03T06:21:09;8.50;98.70
4811;DHT22;2419;51.276;6.472;2023-04-03T06:23:37;8.20;98.60
4811;DHT22;2419;51.276;6.472;2023-04-03T06:26:05;8.00;99.20
4811;DHT22;2419;51.276;6.472;2023-04-03T06:28:33;8.20;98.90
4811;DHT22;2419;51.276;6.472;2023-04-03T06:31:03;8.70;98.20
4811;DHT22;2419;51.276;6.472;2023-04-03T06:33:31;9.10;97.60
4811;DHT22;2419;51.276;6.472;2023-04-03T06:35:59;8.70;97.60
4811;DHT22;2419;51.276;6.472;2023-04-03T06:38:28;8.70;97.80
4811;DHT22;2419;51.276;6.472;2023-04-03T06:40:56;8.90;97.80
4811;DHT22;2419;51.276;6.472;2023-04-03T06:43:24;8.90;97.50
4811;DHT22;2419;51.276;6.472;2023-04-03T06:45:52;8.50;96.80
4811;DHT22;2419;51.276;6.472;2023-04-03T06:48:22;8.50;96.90
4811;DHT22;2419;51.276;6.472;2023-04-03T06:50:50;8.40;97.10
4811;DHT22;2419;51.276;6.472;2023-04-03T06:53:18;7.40;98.40
4811;DHT22;2419;51.276;6.472;2023-04-03T06:55:46;6.40;99.90
4811;DHT22;2419;51.276;6.472;2023-04-03T06:58:14;6.30;99.90
4811;DHT22;2419;51.276;6.472;2023-04-03T07:00:45;7.00;99.90
4811;DHT22;2419;51.276;6.472;2023-04-03T07:03:13;7.00;99.90
4811;DHT22;2419;51.276;6.472;2023-04-03T07:05:44;6.20;99.90
4811;DHT22;2419;51.276;6.472;2023-04-03T07:08:12;7.00;99.90
4811;DHT22;2419;51.276;6.472;2023-04-03T07:10:40;7.50;98.70
4811;DHT22;2419;51.276;6.472;2023-04-03T07:13:08;7.20;99.00
4811;DHT22;2419;51.276;6.472;2023-04-03T07:15:36;7.30;98.90
4811;DHT22;2419;51.276;6.472;2023-04-03T07:18:05;7.40;99.70
4811;DHT22;2419;51.276;6.472;2023-04-03T07:20:33;8.10;98.90
4811;DHT22;2419;51.276;6.472;2023-04-03T07:23:02;8.20;98.10
4811;DHT22;2419;51.276;6.472;2023-04-03T07:25:30;8.20;98.50
4811;DHT22;2419;51.276;6.472;2023-04-03T07:28:00;7.60;98.70
4811;DHT22;2419;51.276;6.472;2023-04-03T07:30:28;7.90;99.20
4811;DHT22;2419;51.276;6.472;2023-04-03T07:32:56;7.30;99.10
4811;DHT22;2419;51.276;6.472;2023-04-03T07:35:24;6.80;99.90
4811;DHT22;2419;51.276;6.472;2023-04-03T07:37:52;6.60;99.90
4811;DHT22;2419;51.276;6.472;2023-04-03T07:40:22;6.20;99.90
4811;DHT22;2419;51.276;6.472;2023-04-03T07:42:50;6.80;99.90
4811;DHT22;2419;51.276;6.472;2023-04-03T07:45:18;7.80;99.00
4811;DHT22;2419;51.276;6.472;2023-04-03T07:47:46;8.60;97.70
4811;DHT22;2419;51.276;6.472;2023-04-03T07:50:14;9.50;97.00
4811;DHT22;2419;51.276;6.472;2023-04-03T07:52:42;9.40;96.40
4811;DHT22;2419;51.276;6.472;2023-04-03T07:55:11;9.00;96.30
4811;DHT22;2419;51.276;6.472;2023-04-03T07:57:40;9.00;96.40
4811;DHT22;2419;51.276;6.472;2023-04-03T08:00:10;8.80;95.50
4811;DHT22;2419;51.276;6.472;2023-04-03T08:02:41;8.90;95.30
4811;DHT22;2419;51.276;6.472;2023-04-03T08:05:09;7.90;95.60
4811;DHT22;2419;51.276;6.472;2023-04-03T08:07:38;7.60;97.50
4811;DHT22;2419;51.276;6.472;2023-04-03T08:10:06;7.80;96.10
4811;DHT22;2419;51.276;6.472;2023-04-03T08:12:35;7.60;95.70
4811;DHT22;2419;51.276;6.472;2023-04-03T08:15:09;8.00;95.40
4811;DHT22;2419;51.276;6.472;2023-04-03T08:17:37;7.50;95.40
4811;DHT22;2419;51.276;6.472;2023-04-03T08:20:06;7.60;94.70
4811;DHT22;2419;51.276;6.472;2023-04-03T08:22:35;8.00;95.80
4811;DHT22;2419;51.276;6.472;2023-04-03T08:25:03;8.30;94.90
4811;DHT22;2419;51.276;6.472;2023-04-03T08:27:31;8.50;93.40
4811;DHT22;2419;51.276;6.472;2023-04-03T08:29:59;8.50;92.40
4811;DHT22;2419;51.276;6.472;2023-04-03T08:32:29;8.80;91.60
4811;DHT22;2419;51.276;6.472;2023-04-03T08:34:57;8.50;91.70
4811;DHT22;2419;51.276;6.472;2023-04-03T08:37:25;8.20;91.30
4811;DHT22;2419;51.276;6.472;2023-04-03T08:39:53;8.40;90.30
4811;DHT22;2419;51.276;6.472;2023-04-03T08:42:36;8.50;92.20
4811;DHT22;2419;51.276;6.472;2023-04-03T08:45:12;8.40;91.70
4811;DHT22;2419;51.276;6.472;2023-04-03T08:47:46;8.20;91.10
4811;DHT22;2419;51.276;6.472;2023-04-03T08:50:28;8.50;90.60
4811;DHT22;2419;51.276;6.472;2023-04-03T08:52:58;9.10;89.80
4811;DHT22;2419;51.276;6.472;2023-04-03T08:55:28;9.30;83.40
4811;DHT22;2419;51.276;6.472;2023-04-03T08:58:01;9.10;82.90
4811;DHT22;2419;51.276;6.472;2023-04-03T09:00:34;9.50;84.00
4811;DHT22;2419;51.276;6.472;2023-04-03T09:03:12;9.60;83.20
4811;DHT22;2419;51.276;6.472;2023-04-03T09:05:45;9.30;78.50
4811;DHT22;2419;51.276;6.472;2023-04-03T09:08:23;9.20;80.80
4811;DHT22;2419;51.276;6.472;2023-04-03T09:10:59;8.90;79.10
4811;DHT22;2419;51.276;6.472;2023-04-03T09:13:35;8.60;78.00
4811;DHT22;2419;51.276;6.472;2023-04-03T09:16:17;9.10;79.60
4811;DHT22;2419;51.276;6.472;2023-04-03T09:18:54;8.50;76.40
4811;DHT22;2419;51.276;6.472;2023-04-03T09:21:29;8.90;77.60
4811;DHT22;2419;51.276;6.472;2023-04-03T09:24:00;9.20;76.10
4811;DHT22;2419;51.276;6.472;2023-04-03T09:26:33;9.50;76.70
4811;DHT22;2419;51.276;6.472;2023-04-03T09:29:05;9.60;78.70
4811;DHT22;2419;51.276;6.472;2023-04-03T09:31:37;9.40;72.10
4811;DHT22;2419;51.276;6.472;2023-04-03T09:34:15;9.30;73.00
4811;DHT22;2419;51.276;6.472;2023-04-03T09:36:46;10.00;68.20
4811;DHT22;2419;51.276;6.472;2023-04-03T09:39:18;9.30;65.20
4811;DHT22;2419;51.276;6.472;2023-04-03T09:41:58;9.20;67.00
4811;DHT22;2419;51.276;6.472;2023-04-03T09:44:30;9.10;67.30
4811;DHT22;2419;51.276;6.472;2023-04-03T09:46:58;9.00;67.10
4811;DHT22;2419;51.276;6.472;2023-04-03T09:49:28;9.10;62.20
4811;DHT22;2419;51.276;6.472;2023-04-03T09:51:56;9.30;63.10
4811;DHT22;2419;51.276;6.472;2023-04-03T09:54:31;10.00;63.10
4811;DHT22;2419;51.276;6.472;2023-04-03T09:57:04;9.60;64.70
4811;DHT22;2419;51.276;6.472;2023-04-03T09:59:34;10.00;65.60
4811;DHT22;2419;51.276;6.472;2023-04-03T10:02:04;11.00;62.70
4811;DHT22;2419;51.276;6.472;2023-04-03T10:04:45;10.80;58.60
4811;DHT22;2419;51.276;6.472;2023-04-03T10:07:33;10.90;60.70
4811;DHT22;2419;51.276;6.472;2023-04-03T10:10:14;11.00;60.50
4811;DHT22;2419;51.276;6.472;2023-04-03T10:12:43;11.40;61.30
4811;DHT22;2419;51.276;6.472;2023-04-03T10:15:13;11.20;58.80
4811;DHT22;2419;51.276;6.472;2023-04-03T10:17:50;11.30;58.90
4811;DHT22;2419;51.276;6.472;2023-04-03T10:20:29;11.50;58.20
4811;DHT22;2419;51.276;6.472;2023-04-03T10:23:06;11.60;56.00
4811;DHT22;2419;51.276;6.472;2023-04-03T10:25:42;12.00;57.70
4811;DHT22;2419;51.276;6.472;2023-04-03T10:28:19;11.90;56.70
4811;DHT22;2419;51.276;6.472;2023-04-03T10:30:54;12.70;55.70
4811;DHT22;2419;51.276;6.472;2023-04-03T10:33:42;12.30;51.70
4811;DHT22;2419;51.276;6.472;2023-04-03T10:36:19;12.40;52.50
4811;DHT22;2419;51.276;6.472;2023-04-03T10:38:58;12.40;55.50
4811;DHT22;2419;51.276;6.472;2023-04-03T10:41:34;13.20;52.40
4811;DHT22;2419;51.276;6.472;2023-04-03T10:44:14;13.40;51.60
4811;DHT22;2419;51.276;6.472;2023-04-03T10:46:45;12.90;52.80
4811;DHT22;2419;51.276;6.472;2023-04-03T10:49:25;13.00;53.60
4811;DHT22;2419;51.276;6.472;2023-04-03T10:52:02;13.00;52.90
4811;DHT22;2419;51.276;6.472;2023-04-03T10:57:24;13.90;57.00
4811;DHT22;2419;51.276;6.472;2023-04-03T10:59:56;13.20;52.10
4811;DHT22;2419;51.276;6.472;2023-04-03T11:02:27;13.10;54.60
4811;DHT22;2419;51.276;6.472;2023-04-03T11:05:00;13.70;53.00
4811;DHT22;2419;51.276;6.472;2023-04-03T11:07:37;13.30;53.40
4811;DHT22;2419;51.276;6.472;2023-04-03T11:10:11;13.70;55.70
4811;DHT22;2419;51.276;6.472;2023-04-03T11:12:43;13.20;55.10
4811;DHT22;2419;51.276;6.472;2023-04-03T11:15:15;13.50;53.40
4811;DHT22;2419;51.276;6.472;2023-04-03T11:17:48;13.40;52.50
4811;DHT22;2419;51.276;6.472;2023-04-03T11:20:22;13.10;50.80
4811;DHT22;2419;51.276;6.472;2023-04-03T11:23:00;12.40;54.10
4811;DHT22;2419;51.276;6.472;2023-04-03T11:25:32;12.20;54.80
4811;DHT22;2419;51.276;6.472;2023-04-03T11:28:03;12.30;55.60
4811;DHT22;2419;51.276;6.472;2023-04-03T11:30:45;13.10;53.90
4811;DHT22;2419;51.276;6.472;2023-04-03T11:33:27;13.20;56.30
4811;DHT22;2419;51.276;6.472;2023-04-03T11:35:59;14.00;54.20
4811;DHT22;2419;51.276;6.472;2023-04-03T11:38:43;14.30;52.30
4811;DHT22;2419;51.276;6.472;2023-04-03T11:41:13;14.10;53.60
4811;DHT22;2419;51.276;6.472;2023-04-03T11:43:55;14.30;52.70
4811;DHT22;2419;51.276;6.472;2023-04-03T11:46:52;13.80;50.50
4811;DHT22;2419;51.276;6.472;2023-04-03T11:49:55;13.70;50.70
4811;DHT22;2419;51.276;6.472;2023-04-03T11:53:00;13.30;52.00
4811;DHT22;2419;51.276;6.472;2023-04-03T11:55:46;13.80;52.20
4811;DHT22;2419;51.276;6.472;2023-04-03T11:58:22;13.80;51.80
4811;DHT22;2419;51.276;6.472;2023-04-03T12:00:52;14.10;52.00
4811;DHT22;2419;51.276;6.472;2023-04-03T12:04:05;14.30;51.70
4811;DHT22;2419;51.276;6.472;2023-04-03T12:10:15;13.60;50.80
4811;DHT22;2419;51.276;6.472;2023-04-03T12:12:59;13.70;51.20
4811;DHT22;2419;51.276;6.472;2023-04-03T12:15:54;13.30;50.60
4811;DHT22;2419;51.276;6.472;2023-04-03T12:18:55;13.50;55.60
4811;DHT22;2419;51.276;6.472;2023-04-03T12:24:34;13.00;52.40
4811;DHT22;2419;51.276;6.472;2023-04-03T12:27:09;12.90;54.10
4811;DHT22;2419;51.276;6.472;2023-04-03T12:29:47;12.90;55.40
4811;DHT22;2419;51.276;6.472;2023-04-03T12:32:29;12.50;54.40
4811;DHT22;2419;51.276;6.472;2023-04-03T12:35:16;12.70;52.70
4811;DHT22;2419;51.276;6.472;2023-04-03T12:38:17;13.20;56.30
4811;DHT22;2419;51.276;6.472;2023-04-03T12:40:50;12.60;53.70
4811;DHT22;2419;51.276;6.472;2023-04-03T12:43:31;12.10;54.40
4811;DHT22;2419;51.276;6.472;2023-04-03T12:46:09;12.30;54.20
4811;DHT22;2419;51.276;6.472;2023-04-03T12:48:48;12.50;55.40
4811;DHT22;2419;51.276;6.472;2023-04-03T12:51:20;13.10;52.90
4811;DHT22;2419;51.276;6.472;2023-04-03T12:53:54;13.00;55.00
4811;DHT22;2419;51.276;6.472;2023-04-03T12:56:25;13.00;53.40
4811;DHT22;2419;51.276;6.472;2023-04-03T12:59:13;13.20;53.00
4811;DHT22;2419;51.276;6.472;2023-04-03T13:01:41;13.10;52.10
4811;DHT22;2419;51.276;6.472;2023-04-03T13:04:11;12.30;54.30
4811;DHT22;2419;51.276;6.472;2023-04-03T13:06:41;12.60;53.50
4811;DHT22;2419;51.276;6.472;2023-04-03T13:09:21;12.50;50.40
4811;DHT22;2419;51.276;6.472;2023-04-03T13:11:52;12.90;55.50
4811;DHT22;2419;51.276;6.472;2023-04-03T13:14:24;12.60;54.30
4811;DHT22;2419;51.276;6.472;2023-04-03T13:16:54;12.50;52.60
4811;DHT22;2419;51.276;6.472;2023-04-03T13:19:24;12.40;52.20
4811;DHT22;2419;51.276;6.472;2023-04-03T13:21:59;12.30;52.90
4811;DHT22;2419;51.276;6.472;2023-04-03T13:24:32;12.50;53.90
4811;DHT22;2419;51.276;6.472;2023-04-03T13:27:02;12.20;52.00
4811;DHT22;2419;51.276;6.472;2023-04-03T13:29:32;11.60;54.20
4811;DHT22;2419;51.276;6.472;2023-04-03T13:32:03;11.90;53.50
4811;DHT22;2419;51.276;6.472;2023-04-03T13:34:37;11.60;52.70
4811;DHT22;2419;51.276;6.472;2023-04-03T13:37:05;11.00;53.00
4811;DHT22;2419;51.276;6.472;2023-04-03T13:39:38;11.20;55.90
4811;DHT22;2419;51.276;6.472;2023-04-03T13:42:20;11.00;53.30
4811;DHT22;2419;51.276;6.472;2023-04-03T13:44:49;10.90;54.70
4811;DHT22;2419;51.276;6.472;2023-04-03T13:47:39;10.70;55.00
4811;DHT22;2419;51.276;6.472;2023-04-03T13:50:15;10.50;56.60
4811;DHT22;2419;51.276;6.472;2023-04-03T13:52:47;10.60;55.70
4811;DHT22;2419;51.276;6.472;2023-04-03T14:04:15;10.60;55.70
4811;DHT22;2419;51.276;6.472;2023-04-03T14:06:44;10.50;55.60
4811;DHT22;2419;51.276;6.472;2023-04-03T14:09:13;10.30;55.50
4811;DHT22;2419;51.276;6.472;2023-04-03T14:11:42;10.40;55.90
4811;DHT22;2419;51.276;6.472;2023-04-03T14:14:14;10.30;57.30
4811;DHT22;2419;51.276;6.472;2023-04-03T14:16:49;10.40;58.10
4811;DHT22;2419;51.276;6.472;2023-04-03T14:19:22;10.30;57.40
4811;DHT22;2419;51.276;6.472;2023-04-03T14:21:52;10.30;57.50
4811;DHT22;2419;51.276;6.472;2023-04-03T14:24:22;10.30;59.40
4811;DHT22;2419;51.276;6.472;2023-04-03T14:26:53;9.80;56.90
4811;DHT22;2419;51.276;6.472;2023-04-03T14:29:22;10.00;57.30
4811;DHT22;2419;51.276;6.472;2023-04-03T14:31:50;10.10;57.70
4811;DHT22;2419;51.276;6.472;2023-04-03T14:34:34;10.20;57.80
4811;DHT22;2419;51.276;6.472;2023-04-03T14:37:04;9.80;57.10
4811;DHT22;2419;51.276;6.472;2023-04-03T14:39:33;9.70;58.10
4811;DHT22;2419;51.276;6.472;2023-04-03T14:42:00;9.90;57.90
4811;DHT22;2419;51.276;6.472;2023-04-03T14:44:28;9.70;57.70
4811;DHT22;2419;51.276;6.472;2023-04-03T14:46:57;9.80;58.90
4811;DHT22;2419;51.276;6.472;2023-04-03T14:49:28;9.80;58.10
4811;DHT22;2419;51.276;6.472;2023-04-03T14:51:58;9.90;58.00
4811;DHT22;2419;51.276;6.472;2023-04-03T14:54:26;10.00;59.60
4811;DHT22;2419;51.276;6.472;2023-04-03T14:56:57;9.80;57.90
4811;DHT22;2419;51.276;6.472;2023-04-03T14:59:26;9.60;57.50
4811;DHT22;2419;51.276;6.472;2023-04-03T15:01:55;9.70;58.30
4811;DHT22;2419;51.276;6.472;2023-04-03T15:04:23;9.70;58.40
4811;DHT22;2419;51.276;6.472;2023-04-03T15:06:52;9.70;58.70
4811;DHT22;2419;51.276;6.472;2023-04-03T15:09:26;9.70;57.60
4811;DHT22;2419;51.276;6.472;2023-04-03T15:38:56;9.50;60.80
4811;DHT22;2419;51.276;6.472;2023-04-03T15:41:24;9.30;60.50
4811;DHT22;2419;51.276;6.472;2023-04-03T15:43:52;9.40;59.70
4811;DHT22;2419;51.276;6.472;2023-04-03T15:46:20;9.20;58.90
4811;DHT22;2419;51.276;6.472;2023-04-03T15:48:48;9.30;61.00
4811;DHT22;2419;51.276;6.472;2023-04-03T15:51:16;9.30;60.70
4811;DHT22;2419;51.276;6.472;2023-04-03T15:53:44;9.30;62.10
4811;DHT22;2419;51.276;6.472;2023-04-03T15:56:13;9.20;60.40
4811;DHT22;2419;51.276;6.472;2023-04-03T15:58:43;9.10;59.90
4811;DHT22;2419;51.276;6.472;2023-04-03T16:01:11;9.10;60.20
4811;DHT22;2419;51.276;6.472;2023-04-03T16:03:40;9.10;61.00
4811;DHT22;2419;51.276;6.472;2023-04-03T16:06:12;9.00;60.20
4811;DHT22;2419;51.276;6.472;2023-04-03T16:08:40;8.90;61.00
4811;DHT22;2419;51.276;6.472;2023-04-03T16:11:09;9.00;62.10
4811;DHT22;2419;51.276;6.472;2023-04-03T16:25:22;8.70;61.10
4811;DHT22;2419;51.276;6.472;2023-04-03T16:27:50;8.70;61.60
4811;DHT22;2419;51.276;6.472;2023-04-03T16:30:19;8.70;62.00
4811;DHT22;2419;51.276;6.472;2023-04-03T16:32:47;8.70;62.00
4811;DHT22;2419;51.276;6.472;2023-04-03T16:35:15;8.70;62.20
4811;DHT22;2419;51.276;6.472;2023-04-03T16:37:43;8.60;62.30
4811;DHT22;2419;51.276;6.472;2023-04-03T16:40:11;8.60;60.80
4811;DHT22;2419;51.276;6.472;2023-04-03T16:42:41;8.60;62.50
4811;DHT22;2419;51.276;6.472;2023-04-03T16:51:15;8.50;63.50
4811;DHT22;2419;51.276;6.472;2023-04-03T16:53:43;8.40;65.60
4811;DHT22;2419;51.276;6.472;2023-04-03T16:56:11;8.40;63.50
4811;DHT22;2419;51.276;6.472;2023-04-03T16:58:40;8.20;62.90
4811;DHT22;2419;51.276;6.472;2023-04-03T17:01:10;8.20;64.10
4811;DHT22;2419;51.276;6.472;2023-04-03T17:03:38;8.10;62.80
4811;DHT22;2419;51.276;6.472;2023-04-03T17:06:07;8.10;64.10
4811;DHT22;2419;51.276;6.472;2023-04-03T17:08:41;8.00;63.80
4811;DHT22;2419;51.276;6.472;2023-04-03T17:11:09;8.00;64.90
4811;DHT22;2419;51.276;6.472;2023-04-03T17:13:37;7.90;65.40
4811;DHT22;2419;51.276;6.472;2023-04-03T17:16:10;7.80;63.00
4811;DHT22;2419;51.276;6.472;2023-04-03T17:18:39;7.70;63.50
4811;DHT22;2419;51.276;6.472;2023-04-03T17:21:07;7.70;65.50
4811;DHT22;2419;51.276;6.472;2023-04-03T17:27:04;7.60;64.00
4811;DHT22;2419;51.276;6.472;2023-04-03T17:29:36;7.50;65.10
4811;DHT22;2419;51.276;6.472;2023-04-03T17:35:10;7.40;65.80
4811;DHT22;2419;51.276;6.472;2023-04-03T17:37:37;7.30;67.50
4811;DHT22;2419;51.276;6.472;2023-04-03T17:40:07;7.40;67.70
4811;DHT22;2419;51.276;6.472;2023-04-03T17:42:35;7.40;68.20
4811;DHT22;2419;51.276;6.472;2023-04-03T17:45:04;7.20;68.40
4811;DHT22;2419;51.276;6.472;2023-04-03T17:47:32;7.10;70.20
4811;DHT22;2419;51.276;6.472;2023-04-03T17:50:00;7.00;69.20
4811;DHT22;2419;51.276;6.472;2023-04-03T18:04:14;6.70;69.20